MUGM/NBW METAR and TAF weather

Enter ICAO airport designator
Station Type Date Time Source
MUGM METAR 2020/07/11 03:51 UTC NOAA

MUGM 110351Z 01005KT 10SM FEW020 BKN280 27/23 A3005 RMK AO2 SLP174 T02720233 $


Station Type Date Time Source
MUGM Decoded METAR 2020/07/11 03:51 UTC NOAA

GUANTANAMO BAY, CUBA NAVAL, CU, Cuba (MUGM) 19-55N 075-12W 23M
Jul 10, 2020 - 11:51 PM EDT / 2020.07.11 0351 UTC
Wind: from the N (010 degrees) at 6 MPH (5 KT):0
Visibility: 10 mile(s):0
Sky conditions: mostly cloudy
Temperature: 81.0 F (27.2 C)
Dew Point: 73.9 F (23.3 C)
Relative Humidity: 79%
Pressure (altimeter): 30.05 in. Hg (1017 hPa)
ob: MUGM 110351Z 01005KT 10SM FEW020 BKN280 27/23 A3005 RMK AO2 SLP174 T02720233
cycle: 4

Station Type Date Time Source
MUGM TAF 2020/07/10 23:03 UTC NOAA

TAF MUGM 1023/1123 13008KT 9999 VCTS SCT025CB BKN120 BKN280 QNH2994INS
BECMG 1023/1100 10006KT 9999 SCT025 BKN120 BKN280 QNH2997INS
BECMG 1102/1104 35006KT 9999 FEW025 SCT280 QNH2996INS
FM111400 13008KT 9999 FEW025 FEW280 QNH2997INS
FM111800 14012KT 9999 VCSH FEW030CB FEW120 BKN280 QNH2993INS T25/1111Z T33/1117Z FN20024

Example: see airport list